Time;durP1;ratioP1;P1;durP2;ratioP2;P2;SDS_P1;SDS_P2;PMS_P1;PMS_P2;Temp;Humidity;BMP_temperature;BMP_pressure;BME280_temperature;BME280_humidity;BME280_pressure;Samples;Min_cycle;Max_cycle;Signal;HPM_P1;HPM_P2
2021/12/25 00:00:04;;;;;;;;;;;;;;;19.81;48.25;99902.91;7290727;19;152972;-50
2021/12/25 00:02:33;;;;;;;;;;;;;;;19.80;48.10;99896.50;7287659;19;152239;-49
2021/12/25 00:04:59;;;;;;;;;;;;;;;19.83;48.45;99901.44;7296990;19;151917;-49
2021/12/25 00:07:26;;;;;;;;;;;;;;;19.85;48.06;99896.31;7253304;19;153778;-49
2021/12/25 00:09:53;;;;;;;;;;;;;;;19.86;47.91;99895.16;7281247;19;152253;-50
2021/12/25 00:12:20;;;;;;;;;;;;;;;19.87;48.19;99896.81;7286644;19;153373;-50
2021/12/25 00:14:47;;;;;;;;;;;;;;;19.87;48.01;99896.81;7285510;19;152824;-49
2021/12/25 00:17:14;;;;;;;;;;;;;;;19.89;48.35;99902.09;7284862;19;152318;-50
2021/12/25 00:19:41;;;;;;;;;;;;;;;19.90;48.28;99900.94;7288485;19;154027;-50
2021/12/25 00:22:07;;;;;;;;;;;;;;;19.91;48.26;99905.38;7286604;19;153313;-49
2021/12/25 00:24:34;;;;;;;;;;;;;;;19.90;48.26;99901.75;7284483;19;151984;-49
2021/12/25 00:27:08;;;;;;;;;;;;;;;19.91;48.14;99902.59;7293515;19;152707;-49
2021/12/25 00:32:33;;;;;;;;;;;;;;;19.90;48.21;99909.34;7287266;19;153354;-49
2021/12/25 00:35:00;;;;;;;;;;;;;;;19.88;48.62;99906.88;7284479;19;153688;-50
2021/12/25 00:37:26;;;;;;;;;;;;;;;19.88;48.21;99908.88;7285622;19;151863;-49
2021/12/25 00:39:56;;;;;;;;;;;;;;;19.87;48.60;99908.03;7288179;19;152653;-50
2021/12/25 00:42:22;;;;;;;;;;;;;;;19.85;48.54;99913.13;7285336;19;152580;-50
2021/12/25 00:44:49;;;;;;;;;;;;;;;19.84;48.90;99917.13;7284993;19;151880;-50
2021/12/25 00:47:16;;;;;;;;;;;;;;;19.83;48.85;99920.22;7286650;19;152687;-50
2021/12/25 00:49:43;;;;;;;;;;;;;;;19.83;48.72;99917.44;7290260;19;151783;-49
2021/12/25 00:52:09;;;;;;;;;;;;;;;19.81;48.78;99914.94;7284287;19;153789;-49
2021/12/25 00:54:36;;;;;;;;;;;;;;;19.79;48.75;99917.28;7286796;19;153471;-49
2021/12/25 00:57:03;;;;;;;;;;;;;;;19.80;49.22;99915.28;7287516;19;152482;-49
2021/12/25 00:59:30;;;;;;;;;;;;;;;19.79;49.22;99913.63;7288555;19;153871;-50
2021/12/25 01:01:58;;;;;;;;;;;;;;;19.78;49.05;99917.59;7286570;19;152598;-49
2021/12/25 01:04:25;;;;;;;;;;;;;;;19.77;49.26;99911.16;7283758;19;152274;-50
2021/12/25 01:06:52;;;;;;;;;;;;;;;19.78;49.42;99924.03;7287539;19;152630;-49
2021/12/25 01:09:19;;;;;;;;;;;;;;;19.78;49.19;99926.00;7293451;19;152797;-49
2021/12/25 01:11:48;;;;;;;;;;;;;;;19.76;49.27;99929.13;7288148;19;152032;-49
2021/12/25 01:14:40;;;;;;;;;;;;;;;19.75;49.69;99938.69;7286199;19;152649;-50
2021/12/25 01:17:58;;;;;;;;;;;;;;;19.76;49.65;99934.72;7287483;19;152051;-50
2021/12/25 01:20:20;;;;;;;;;;;;;;;19.75;49.70;99921.06;7287553;19;153035;-50
2021/12/25 01:26:32;;;;;;;;;;;;;;;19.73;49.87;99918.56;7284134;19;151735;-49
2021/12/25 01:31:33;;;;;;;;;;;;;;;19.71;49.56;99912.50;7281603;19;154020;-49
2021/12/25 01:49:56;;;;;;;;;;;;;;;19.67;50.05;99935.88;7287029;19;151785;-51
2021/12/25 01:52:26;;;;;;;;;;;;;;;19.64;50.31;99936.53;7284025;19;153880;-50
2021/12/25 01:54:54;;;;;;;;;;;;;;;19.62;50.51;99936.88;7287454;19;151765;-50
2021/12/25 01:57:21;;;;;;;;;;;;;;;19.61;50.09;99935.22;7293351;19;153084;-49
2021/12/25 01:59:48;;;;;;;;;;;;;;;19.62;50.23;99944.44;7286396;19;151978;-49
2021/12/25 02:02:15;;;;;;;;;;;;;;;19.61;50.70;99940.00;7285577;19;152080;-50
2021/12/25 02:04:42;;;;;;;;;;;;;;;19.62;50.20;99936.03;7283810;19;154317;-49
2021/12/25 02:07:09;;;;;;;;;;;;;;;19.61;49.94;99942.78;7286114;19;152314;-49
2021/12/25 02:09:35;;;;;;;;;;;;;;;19.59;50.50;99945.91;7286544;19;152723;-49
2021/12/25 02:12:02;;;;;;;;;;;;;;;19.57;50.41;99948.22;7285818;19;153051;-50
2021/12/25 02:14:30;;;;;;;;;;;;;;;19.55;50.43;99956.13;7286746;19;151526;-50
2021/12/25 02:17:12;;;;;;;;;;;;;;;19.53;50.41;99944.44;7287258;19;153117;-50
2021/12/25 02:19:49;;;;;;;;;;;;;;;19.51;50.75;99952.31;7291674;19;153966;-50
2021/12/25 02:22:18;;;;;;;;;;;;;;;19.49;50.71;99955.44;7285746;19;153326;-50
2021/12/25 02:24:45;;;;;;;;;;;;;;;19.49;50.52;99961.03;7282966;19;152307;-49
2021/12/25 02:27:12;;;;;;;;;;;;;;;19.46;51.08;99958.06;7283561;19;152763;-50
2021/12/25 02:29:39;;;;;;;;;;;;;;;19.44;50.80;99966.00;7286344;19;152864;-49
2021/12/25 02:32:07;;;;;;;;;;;;;;;19.44;51.07;99957.59;7282688;19;152250;-49
2021/12/25 02:34:33;;;;;;;;;;;;;;;19.41;51.21;99963.78;7286066;19;151623;-49
2021/12/25 02:37:00;;;;;;;;;;;;;;;19.41;50.87;99964.63;7285739;19;152059;-50
2021/12/25 02:39:27;;;;;;;;;;;;;;;19.39;51.08;99971.72;7283658;19;153248;-49
2021/12/25 02:41:54;;;;;;;;;;;;;;;19.36;50.84;99967.56;7291807;19;151647;-50
2021/12/25 02:44:23;;;;;;;;;;;;;;;19.36;50.73;99969.53;7283366;19;153571;-50
2021/12/25 02:46:54;;;;;;;;;;;;;;;19.36;51.15;99975.16;7280897;19;152444;-50
2021/12/25 02:49:26;;;;;;;;;;;;;;;19.33;50.63;99964.59;7283649;19;153693;-49
2021/12/25 02:51:53;;;;;;;;;;;;;;;19.32;51.02;99968.53;7281147;19;153411;-49
2021/12/25 02:54:20;;;;;;;;;;;;;;;19.32;50.78;99968.53;7282383;19;152139;-50
2021/12/25 02:56:47;;;;;;;;;;;;;;;19.30;51.26;99960.47;7283657;19;153336;-50
2021/12/25 02:59:15;;;;;;;;;;;;;;;19.28;51.21;99959.13;7281256;19;154289;-50
2021/12/25 03:02:03;;;;;;;;;;;;;;;19.29;51.38;99963.59;7289459;19;152089;-50
2021/12/25 03:04:30;;;;;;;;;;;;;;;19.25;51.06;99963.44;7280000;19;154637;-49
2021/12/25 03:06:57;;;;;;;;;;;;;;;19.25;51.71;99962.59;7281368;19;153436;-49
2021/12/25 03:09:24;;;;;;;;;;;;;;;19.26;51.21;99967.06;7281193;19;152819;-50
2021/12/25 03:11:52;;;;;;;;;;;;;;;19.25;51.90;99962.59;7279339;19;153468;-50
2021/12/25 03:16:49;;;;;;;;;;;;;;;19.25;51.40;99959.81;7278912;19;154495;-50
2021/12/25 03:19:23;;;;;;;;;;;;;;;19.21;51.72;99965.22;7282637;19;153767;-49
2021/12/25 03:21:50;;;;;;;;;;;;;;;19.20;51.55;99955.16;7282907;19;151936;-50
2021/12/25 03:24:17;;;;;;;;;;;;;;;19.22;51.67;99961.25;7287288;19;153559;-49
2021/12/25 03:26:44;;;;;;;;;;;;;;;19.20;51.49;99960.78;7281078;19;152244;-50
2021/12/25 03:29:12;;;;;;;;;;;;;;;19.20;51.88;99955.16;7280336;19;152870;-49
2021/12/25 03:31:37;;;;;;;;;;;;;;;19.19;51.39;99955.47;7277302;19;152413;-49
2021/12/25 03:34:05;;;;;;;;;;;;;;;19.18;51.57;99962.22;7278328;19;152189;-50
2021/12/25 03:36:32;;;;;;;;;;;;;;;19.17;51.47;99961.41;7281946;19;153201;-49
2021/12/25 03:39:00;;;;;;;;;;;;;;;19.18;51.74;99965.03;7278405;19;153684;-50
2021/12/25 03:41:27;;;;;;;;;;;;;;;19.16;51.82;99967.34;7278992;19;151950;-49
2021/12/25 03:43:56;;;;;;;;;;;;;;;19.17;51.54;99969.78;7280228;19;152858;-50
2021/12/25 03:46:23;;;;;;;;;;;;;;;19.16;51.71;99968.16;7284028;19;152280;-49
2021/12/25 03:58:48;;;;;;;;;;;;;;;19.14;51.85;99981.66;7284056;19;154688;-50
2021/12/25 04:04:01;;;;;;;;;;;;;;;19.12;51.71;99974.75;7285161;19;153073;-49
2021/12/25 04:06:28;;;;;;;;;;;;;;;19.12;51.69;99983.13;7281173;19;153371;-50
2021/12/25 04:08:57;;;;;;;;;;;;;;;19.12;51.86;99983.97;7292422;19;151895;-49
2021/12/25 04:13:54;;;;;;;;;;;;;;;19.10;51.74;99991.84;7286474;19;151897;-50
2021/12/25 04:16:22;;;;;;;;;;;;;;;19.09;51.51;99990.19;7286756;19;153485;-50
2021/12/25 04:18:49;;;;;;;;;;;;;;;19.09;51.84;99987.38;7280852;19;154924;-50
2021/12/25 04:21:16;;;;;;;;;;;;;;;19.08;51.70;99992.16;7287531;19;152388;-50
2021/12/25 04:23:44;;;;;;;;;;;;;;;19.08;51.57;99994.13;7285018;19;152850;-50
2021/12/25 04:26:12;;;;;;;;;;;;;;;19.07;51.40;100001.72;7281851;19;153332;-50
2021/12/25 05:04:02;;;;;;;;;;;;;;;19.03;51.16;100003.50;7286284;19;151592;-50
2021/12/25 05:06:29;;;;;;;;;;;;;;;19.02;51.21;100001.88;7279770;19;154186;-49
2021/12/25 05:08:56;;;;;;;;;;;;;;;19.01;51.16;100014.19;7285144;19;151636;-49
2021/12/25 05:11:23;;;;;;;;;;;;;;;19.01;50.92;100024.56;7285658;19;153139;-49
2021/12/25 05:13:53;;;;;;;;;;;;;;;19.01;51.29;100016.19;7291680;19;153560;-50
2021/12/25 05:16:21;;;;;;;;;;;;;;;19.00;51.03;100034.09;7283500;19;152416;-50
2021/12/25 05:18:50;;;;;;;;;;;;;;;18.97;51.09;100024.41;7281320;19;153030;-49
2021/12/25 05:21:18;;;;;;;;;;;;;;;18.96;51.59;100033.09;7282207;19;151726;-48
2021/12/25 05:23:47;;;;;;;;;;;;;;;18.97;51.63;100034.75;7282405;19;154151;-49
2021/12/25 05:26:14;;;;;;;;;;;;;;;18.97;51.00;100034.75;7281418;19;153290;-49
2021/12/25 05:28:44;;;;;;;;;;;;;;;18.97;51.39;100037.56;7284004;19;152001;-50
2021/12/25 05:31:13;;;;;;;;;;;;;;;18.97;51.38;100049.59;7282290;19;153187;-49
2021/12/25 05:33:41;;;;;;;;;;;;;;;18.95;51.41;100049.06;7283490;19;153315;-49
2021/12/25 05:36:08;;;;;;;;;;;;;;;18.95;51.14;100053.84;7292350;19;152264;-50
2021/12/25 05:38:35;;;;;;;;;;;;;;;18.95;51.37;100060.25;7279811;19;152834;-50
2021/12/25 05:41:02;;;;;;;;;;;;;;;18.95;51.34;100059.44;7284391;19;151974;-49
2021/12/25 05:43:29;;;;;;;;;;;;;;;18.94;51.45;100055.81;7280431;19;152396;-50
2021/12/25 05:45:57;;;;;;;;;;;;;;;18.92;51.40;100055.31;7281271;19;154495;-50
2021/12/25 05:48:24;;;;;;;;;;;;;;;18.93;51.43;100048.56;7280243;19;152841;-49
2021/12/25 05:50:51;;;;;;;;;;;;;;;18.93;51.22;100056.97;7284044;19;152013;-49
2021/12/25 05:53:19;;;;;;;;;;;;;;;18.94;51.09;100053.00;7282118;19;153804;-49
2021/12/25 05:55:46;;;;;;;;;;;;;;;18.94;51.41;100055.00;7283178;19;152428;-49
2021/12/25 05:58:13;;;;;;;;;;;;;;;18.94;51.02;100053.00;7289190;19;152524;-50
2021/12/25 06:00:40;;;;;;;;;;;;;;;18.94;50.91;100050.19;7283324;19;152647;-50
2021/12/25 06:03:08;;;;;;;;;;;;;;;18.94;51.06;100058.59;7281644;19;152907;-49
2021/12/25 06:05:35;;;;;;;;;;;;;;;18.93;51.39;100065.38;7279442;19;152724;-50
2021/12/25 06:08:03;;;;;;;;;;;;;;;18.92;51.32;100058.13;7283950;19;151738;-49
2021/12/25 06:10:30;;;;;;;;;;;;;;;18.91;51.41;100067.66;7280177;19;153955;-49
2021/12/25 06:12:59;;;;;;;;;;;;;;;18.90;50.94;100071.59;7282520;19;153469;-49
2021/12/25 06:15:28;;;;;;;;;;;;;;;18.89;50.94;100066.31;7280917;19;152575;-49
2021/12/25 06:17:56;;;;;;;;;;;;;;;18.88;51.23;100068.28;7282692;19;152296;-50
2021/12/25 06:20:23;;;;;;;;;;;;;;;18.89;51.13;100072.75;7289052;19;154254;-49
2021/12/25 06:22:51;;;;;;;;;;;;;;;18.88;50.87;100079.50;7282174;19;153152;-49
2021/12/25 06:25:18;;;;;;;;;;;;;;;18.88;50.94;100073.91;7282737;19;153780;-50
2021/12/25 06:27:46;;;;;;;;;;;;;;;18.85;51.06;100077.31;7283135;19;153601;-49
2021/12/25 06:30:14;;;;;;;;;;;;;;;18.87;50.84;100085.41;7283981;19;152696;-50
2021/12/25 06:32:40;;;;;;;;;;;;;;;18.85;50.77;100080.09;7280765;19;152444;-49
2021/12/25 06:35:08;;;;;;;;;;;;;;;18.86;50.84;100089.34;7283647;19;152162;-50
2021/12/25 06:37:36;;;;;;;;;;;;;;;18.84;50.52;100086.03;7280218;19;153015;-49
2021/12/25 06:40:03;;;;;;;;;;;;;;;18.84;50.45;100078.47;7283413;19;153994;-51
2021/12/25 06:42:30;;;;;;;;;;;;;;;18.84;50.76;100078.47;7290509;19;151691;-49
2021/12/25 06:44:57;;;;;;;;;;;;;;;18.82;50.75;100089.16;7283168;19;152813;-49
2021/12/25 06:47:25;;;;;;;;;;;;;;;18.82;50.72;100085.53;7280223;19;151870;-50
2021/12/25 06:49:52;;;;;;;;;;;;;;;18.80;50.39;100080.25;7284979;19;153083;-50
2021/12/25 06:52:19;;;;;;;;;;;;;;;18.80;50.67;100079.44;7280725;19;153303;-50
2021/12/25 06:54:46;;;;;;;;;;;;;;;18.79;50.34;100081.41;7282614;19;151956;-50
2021/12/25 06:57:13;;;;;;;;;;;;;;;18.80;50.66;100087.81;7278795;19;152723;-49
2021/12/25 06:59:40;;;;;;;;;;;;;;;18.80;50.60;100082.22;7280988;19;153407;-49
2021/12/25 07:02:07;;;;;;;;;;;;;;;18.79;50.24;100087.00;7280494;19;151865;-50
2021/12/25 07:04:35;;;;;;;;;;;;;;;18.76;50.34;100090.41;7286067;19;153167;-50
2021/12/25 07:07:02;;;;;;;;;;;;;;;18.78;50.33;100081.72;7279611;19;152719;-49
2021/12/25 07:09:29;;;;;;;;;;;;;;;18.70;50.43;100085.28;7280829;19;153146;-49
2021/12/25 07:11:57;;;;;;;;;;;;;;;18.62;50.96;100096.06;7280377;19;154954;-49
2021/12/25 07:14:25;;;;;;;;;;;;;;;18.59;50.65;100095.88;7279092;19;152205;-49
2021/12/25 07:16:52;;;;;;;;;;;;;;;18.58;51.03;100097.84;7281965;19;153077;-50
2021/12/25 07:19:19;;;;;;;;;;;;;;;18.55;50.83;100097.66;7280349;19;152838;-49
2021/12/25 07:21:46;;;;;;;;;;;;;;;18.55;51.13;100100.44;7281920;19;152189;-50
2021/12/25 07:24:14;;;;;;;;;;;;;;;18.54;50.75;100104.38;7287234;19;152268;-49
2021/12/25 07:26:41;;;;;;;;;;;;;;;18.54;50.80;100109.97;7278569;19;151695;-49
2021/12/25 07:29:08;;;;;;;;;;;;;;;18.50;51.05;100106.97;7285832;19;152111;-49
2021/12/25 07:31:35;;;;;;;;;;;;;;;18.48;51.04;100111.22;7286377;19;154819;-49
2021/12/25 07:34:03;;;;;;;;;;;;;;;18.48;50.99;100100.03;7287236;19;152091;-49
2021/12/25 07:36:30;;;;;;;;;;;;;;;18.47;50.87;100113.19;7285933;19;153591;-50
2021/12/25 07:38:57;;;;;;;;;;;;;;;18.45;51.04;100111.84;7283923;19;154956;-49
2021/12/25 07:41:25;;;;;;;;;;;;;;;18.44;50.92;100115.78;7285279;19;152417;-50
2021/12/25 07:43:52;;;;;;;;;;;;;;;18.42;51.28;100115.28;7285572;19;153584;-50
2021/12/25 07:46:19;;;;;;;;;;;;;;;18.41;50.81;100116.41;7292430;19;153484;-49
2021/12/25 07:48:47;;;;;;;;;;;;;;;18.40;50.96;100118.38;7285812;19;152726;-50
2021/12/25 07:51:14;;;;;;;;;;;;;;;18.40;50.77;100129.56;7285635;19;152200;-49
2021/12/25 07:53:43;;;;;;;;;;;;;;;18.40;50.94;100126.75;7287999;19;152299;-49
2021/12/25 07:56:11;;;;;;;;;;;;;;;18.38;51.31;100128.22;7289327;19;153688;-49
2021/12/25 07:58:39;;;;;;;;;;;;;;;18.37;51.14;100132.16;7284646;19;154119;-49
2021/12/25 08:01:06;;;;;;;;;;;;;;;18.34;51.39;100142.03;7288599;19;152168;-50
2021/12/25 08:03:35;;;;;;;;;;;;;;;18.33;51.40;100139.53;7289286;19;152178;-50
2021/12/25 08:06:03;;;;;;;;;;;;;;;18.32;51.39;100146.25;7283114;19;153891;-50
2021/12/25 08:08:30;;;;;;;;;;;;;;;18.31;51.03;100144.59;7296126;19;152135;-50
2021/12/25 08:10:57;;;;;;;;;;;;;;;18.28;51.42;100148.84;7286476;19;153566;-49
2021/12/25 08:13:24;;;;;;;;;;;;;;;18.27;51.15;100147.19;7289596;19;151611;-50
2021/12/25 08:15:51;;;;;;;;;;;;;;;18.27;51.59;100149.16;7284595;19;152174;-49
2021/12/25 08:18:18;;;;;;;;;;;;;;;18.27;51.16;100154.75;7284720;19;153419;-49
2021/12/25 08:20:45;;;;;;;;;;;;;;;18.26;51.33;100164.31;7286752;19;152206;-49
2021/12/25 08:23:13;;;;;;;;;;;;;;;18.23;51.36;100165.75;7285458;19;152079;-50
2021/12/25 08:25:40;;;;;;;;;;;;;;;18.23;51.43;100163.78;7285869;19;153673;-50
2021/12/25 08:28:09;;;;;;;;;;;;;;;18.22;51.46;100167.69;7285980;19;152060;-50
2021/12/25 08:30:36;;;;;;;;;;;;;;;18.21;51.73;100177.22;7292074;19;153112;-50
2021/12/25 08:33:03;;;;;;;;;;;;;;;18.20;51.31;100175.59;7287895;19;152047;-49
2021/12/25 08:35:30;;;;;;;;;;;;;;;18.20;51.59;100174.75;7286900;19;152565;-50
2021/12/25 08:37:58;;;;;;;;;;;;;;;18.16;51.18;100176.53;7281310;19;153650;-50
2021/12/25 08:40:26;;;;;;;;;;;;;;;18.16;51.61;100179.31;7284187;19;152161;-49
2021/12/25 08:42:58;;;;;;;;;;;;;;;18.15;51.56;100178.50;7283284;19;153340;-50
2021/12/25 08:47:56;;;;;;;;;;;;;;;18.13;51.51;100177.97;7279932;19;152432;-50
2021/12/25 08:50:23;;;;;;;;;;;;;;;18.10;51.74;100184.19;7286094;19;153537;-49
2021/12/25 08:52:50;;;;;;;;;;;;;;;18.12;51.72;100183.88;7289958;19;154640;-49
2021/12/25 08:55:18;;;;;;;;;;;;;;;18.10;51.39;100184.19;7283881;19;153844;-49
2021/12/25 08:57:45;;;;;;;;;;;;;;;18.09;51.54;100184.47;7282804;19;154029;-49
2021/12/25 09:00:12;;;;;;;;;;;;;;;18.10;51.62;100188.94;7283523;19;152337;-50
2021/12/25 09:02:39;;;;;;;;;;;;;;;18.10;51.55;100186.16;7285241;19;153518;-49
2021/12/25 09:05:07;;;;;;;;;;;;;;;18.08;51.68;100189.25;7283488;19;154287;-49
2021/12/25 09:07:34;;;;;;;;;;;;;;;18.09;51.34;100190.91;7283515;19;152037;-50
2021/12/25 09:10:01;;;;;;;;;;;;;;;18.06;51.76;100204.69;7283400;19;152823;-49
2021/12/25 09:12:28;;;;;;;;;;;;;;;18.03;51.62;100196.94;7285254;19;154472;-50
2021/12/25 09:14:55;;;;;;;;;;;;;;;18.02;51.85;100204.47;7292845;19;152111;-50
2021/12/25 09:17:23;;;;;;;;;;;;;;;18.03;51.92;100203.34;7283426;19;153902;-50
2021/12/25 09:19:50;;;;;;;;;;;;;;;18.03;51.90;100217.31;7283076;19;153317;-50
2021/12/25 09:22:17;;;;;;;;;;;;;;;18.01;51.65;100213.16;7284682;19;152409;-50
2021/12/25 09:24:44;;;;;;;;;;;;;;;18.03;51.82;100219.28;7284267;19;154124;-50
2021/12/25 09:27:11;;;;;;;;;;;;;;;18.00;51.51;100217.09;7280936;19;152421;-50
2021/12/25 09:29:38;;;;;;;;;;;;;;;17.97;51.77;100212.97;7285128;19;152965;-49
2021/12/25 09:32:06;;;;;;;;;;;;;;;17.98;51.85;100222.19;7284788;19;153608;-53
2021/12/25 09:34:33;;;;;;;;;;;;;;;17.97;52.01;100224.13;7291613;19;152138;-49
2021/12/25 09:37:02;;;;;;;;;;;;;;;17.97;52.01;100234.47;7284738;19;153480;-50
2021/12/25 09:39:29;;;;;;;;;;;;;;;17.95;52.29;100232.00;7284854;19;151871;-49
2021/12/25 09:41:57;;;;;;;;;;;;;;;17.97;51.80;100240.06;7283594;19;152629;-49
2021/12/25 09:44:24;;;;;;;;;;;;;;;17.96;51.95;100236.44;7283063;19;155283;-49
2021/12/25 09:46:51;;;;;;;;;;;;;;;17.95;52.26;100236.75;7283595;19;152278;-49
2021/12/25 09:49:18;;;;;;;;;;;;;;;17.94;52.14;100235.13;7283953;19;152676;-50
2021/12/25 09:51:45;;;;;;;;;;;;;;;17.94;52.07;100240.69;7281509;19;153351;-50
2021/12/25 09:54:14;;;;;;;;;;;;;;;17.94;52.41;100244.31;7281180;19;152604;-49
2021/12/25 09:56:43;;;;;;;;;;;;;;;17.93;52.14;100242.66;7289410;19;153857;-49
2021/12/25 09:59:11;;;;;;;;;;;;;;;17.92;51.99;100240.16;7284251;19;151766;-50
2021/12/25 10:01:40;;;;;;;;;;;;;;;17.90;52.12;100240.47;7282425;19;152818;-49
2021/12/25 10:04:09;;;;;;;;;;;;;;;17.90;52.40;100242.47;7281623;19;154641;-49
2021/12/25 10:06:40;;;;;;;;;;;;;;;17.91;52.36;100241.28;7278971;19;152122;-50
2021/12/25 10:09:10;;;;;;;;;;;;;;;17.88;52.29;100245.56;7283361;19;152157;-49
2021/12/25 10:11:38;;;;;;;;;;;;;;;17.88;52.21;100253.94;7282051;19;153791;-50
2021/12/25 10:14:05;;;;;;;;;;;;;;;17.88;52.32;100255.91;7281703;19;152434;-50
2021/12/25 10:16:33;;;;;;;;;;;;;;;17.87;52.56;100257.84;7282297;19;152698;-49
2021/12/25 10:19:03;;;;;;;;;;;;;;;17.84;52.52;100249.25;7289897;19;152960;-49
2021/12/25 10:21:30;;;;;;;;;;;;;;;17.82;52.30;100263.53;7283735;19;152642;-49
2021/12/25 10:24:02;;;;;;;;;;;;;;;17.86;52.35;100256.19;7282794;19;153361;-49
2021/12/25 10:26:29;;;;;;;;;;;;;;;17.84;52.33;100260.44;7283271;19;152185;-49
2021/12/25 10:28:56;;;;;;;;;;;;;;;17.82;52.65;100252.34;7282604;19;153220;-49
2021/12/25 10:31:26;;;;;;;;;;;;;;;17.89;52.82;100252.81;7282284;19;152450;-50
2021/12/25 10:33:53;;;;;;;;;;;;;;;17.95;52.04;100262.72;7282831;19;152077;-49
2021/12/25 10:36:23;;;;;;;;;;;;;;;17.99;51.68;100254.59;7280396;19;152914;-49
2021/12/25 10:38:54;;;;;;;;;;;;;;;18.02;51.88;100260.38;7280296;19;154123;-49
2021/12/25 10:41:22;;;;;;;;;;;;;;;18.09;51.53;100265.53;7290688;19;151467;-49
2021/12/25 10:43:52;;;;;;;;;;;;;;;18.13;51.38;100270.22;7281198;19;152551;-50
2021/12/25 10:46:20;;;;;;;;;;;;;;;18.18;50.90;100258.09;7278962;19;154149;-50
2021/12/25 10:48:47;;;;;;;;;;;;;;;18.22;51.10;100267.53;7281957;19;153534;-50
2021/12/25 10:51:17;;;;;;;;;;;;;;;18.27;50.83;100261.00;7281603;19;152460;-50
2021/12/25 10:53:50;;;;;;;;;;;;;;;18.33;51.01;100259.78;7283335;19;151579;-49
2021/12/25 10:56:19;;;;;;;;;;;;;;;18.40;51.11;100260.19;7282143;19;152678;-48
2021/12/25 10:58:46;;;;;;;;;;;;;;;18.47;51.48;100261.44;7281833;19;153919;-49
2021/12/25 11:01:15;;;;;;;;;;;;;;;18.54;51.46;100259.06;7282264;19;151945;-50
2021/12/25 11:03:44;;;;;;;;;;;;;;;18.62;51.09;100257.53;7289649;19;153036;-49
2021/12/25 11:06:13;;;;;;;;;;;;;;;18.71;50.83;100258.44;7278543;19;151933;-50
2021/12/25 11:08:40;;;;;;;;;;;;;;;18.81;50.98;100262.97;7279190;19;152415;-50
2021/12/25 11:11:11;;;;;;;;;;;;;;;18.89;50.55;100259.44;7279239;19;154200;-49
2021/12/25 11:13:39;;;;;;;;;;;;;;;18.96;50.13;100262.63;7281673;19;152136;-50
2021/12/25 11:16:08;;;;;;;;;;;;;;;19.06;50.12;100270.81;7283282;19;153541;-49
2021/12/25 11:18:39;;;;;;;;;;;;;;;19.13;49.83;100262.78;7282200;19;153703;-49
2021/12/25 11:21:09;;;;;;;;;;;;;;;19.22;49.48;100262.88;7281861;19;152397;-50
2021/12/25 11:23:37;;;;;;;;;;;;;;;19.30;49.16;100262.13;7279729;19;154075;-50
2021/12/25 11:26:06;;;;;;;;;;;;;;;19.36;48.79;100258.88;7286751;19;152762;-50
2021/12/25 11:28:35;;;;;;;;;;;;;;;19.43;48.92;100250.03;7278866;19;152547;-50
2021/12/25 11:31:02;;;;;;;;;;;;;;;19.46;48.60;100247.47;7280066;19;154247;-49
2021/12/25 11:33:29;;;;;;;;;;;;;;;19.53;48.16;100252.63;7280860;19;152632;-50
2021/12/25 11:35:56;;;;;;;;;;;;;;;19.57;47.92;100253.66;7281295;19;153508;-50
2021/12/25 11:38:23;;;;;;;;;;;;;;;19.61;47.83;100249.06;7279589;19;154107;-50
2021/12/25 11:40:53;;;;;;;;;;;;;;;19.66;47.82;100242.50;7281070;19;152164;-50
2021/12/25 11:43:23;;;;;;;;;;;;;;;19.70;47.79;100235.94;7280271;19;153333;-50
2021/12/25 11:45:51;;;;;;;;;;;;;;;19.74;47.24;100233.31;7287154;19;153119;-50
2021/12/25 11:48:20;;;;;;;;;;;;;;;19.76;47.48;100243.03;7277296;19;152449;-49
2021/12/25 11:50:49;;;;;;;;;;;;;;;19.78;47.50;100231.50;7278541;19;152826;-49
2021/12/25 12:00:47;;;;;;;;;;;;;;;19.87;47.04;100243.59;7279422;19;152391;-49
2021/12/25 12:03:18;;;;;;;;;;;;;;;19.88;46.70;100237.69;7280667;19;152613;-49
2021/12/25 12:05:47;;;;;;;;;;;;;;;19.90;46.88;100240.97;7276966;19;153584;-49
2021/12/25 12:08:15;;;;;;;;;;;;;;;19.91;46.84;100244.63;7284293;19;152225;-50
2021/12/25 12:10:44;;;;;;;;;;;;;;;19.91;46.69;100244.63;7279375;19;153659;-49
2021/12/25 12:13:19;;;;;;;;;;;;;;;19.91;46.26;100237.03;7279810;19;152117;-49
2021/12/25 12:15:49;;;;;;;;;;;;;;;19.91;46.26;100248.25;7283546;19;152480;-49
2021/12/25 12:18:20;;;;;;;;;;;;;;;19.92;46.59;100244.31;7286288;19;153581;-49
2021/12/25 12:21:05;;;;;;;;;;;;;;;19.91;46.52;100231.44;7285690;19;152473;-49
2021/12/25 12:26:13;;;;;;;;;;;;;;;19.92;46.15;100235.88;7287632;19;152292;-50
2021/12/25 12:28:42;;;;;;;;;;;;;;;19.92;46.49;100235.06;7284728;19;152119;-50
2021/12/25 12:31:29;;;;;;;;;;;;;;;19.92;46.14;100224.69;7292665;19;153231;-49
2021/12/25 12:33:56;;;;;;;;;;;;;;;19.90;46.46;100226.97;7283780;19;152014;-50
2021/12/25 12:36:25;;;;;;;;;;;;;;;19.90;46.51;100229.75;7285438;19;152844;-48
2021/12/25 12:38:56;;;;;;;;;;;;;;;19.89;46.24;100227.31;7287907;19;152889;-49
2021/12/25 12:41:27;;;;;;;;;;;;;;;19.88;46.01;100228.44;7286446;19;151966;-50
2021/12/25 12:43:56;;;;;;;;;;;;;;;19.89;46.23;100232.91;7288146;19;153974;-49
2021/12/25 12:46:24;;;;;;;;;;;;;;;19.87;46.67;100226.78;7286732;19;154274;-49
2021/12/25 12:48:54;;;;;;;;;;;;;;;19.88;46.40;100225.63;7282746;19;151954;-49
2021/12/25 12:51:21;;;;;;;;;;;;;;;19.86;46.73;100219.50;7285426;19;155015;-49
2021/12/25 12:53:51;;;;;;;;;;;;;;;19.86;46.18;100213.91;7291250;19;153049;-49
2021/12/25 12:56:21;;;;;;;;;;;;;;;19.86;46.68;100227.91;7283947;19;152307;-50
2021/12/25 12:58:52;;;;;;;;;;;;;;;19.95;48.76;100215.59;7284536;19;153082;-50
2021/12/25 13:01:19;;;;;;;;;;;;;;;20.05;49.70;100213.69;7285997;19;152052;-54
2021/12/25 13:03:47;;;;;;;;;;;;;;;20.03;50.37;100213.19;7283367;19;153406;-50
2021/12/25 13:06:15;;;;;;;;;;;;;;;19.96;50.51;100203.25;7282262;19;153512;-49
2021/12/25 13:08:47;;;;;;;;;;;;;;;19.99;49.65;100207.38;7282791;19;152118;-51
2021/12/25 13:16:19;;;;;;;;;;;;;;;20.25;51.07;100222.34;7292198;19;151948;-50
2021/12/25 13:18:49;;;;;;;;;;;;;;;20.20;51.29;100227.28;7285537;19;152900;-49
2021/12/25 13:21:18;;;;;;;;;;;;;;;20.13;51.11;100224.94;7285133;19;152494;-49
2021/12/25 13:23:50;;;;;;;;;;;;;;;20.08;51.75;100211.03;7283992;19;153333;-50
2021/12/25 13:26:21;;;;;;;;;;;;;;;20.09;50.61;100215.50;7280863;19;153193;-50
2021/12/25 13:28:51;;;;;;;;;;;;;;;20.00;50.57;100209.03;7282744;19;151994;-50
2021/12/25 13:31:21;;;;;;;;;;;;;;;19.97;50.68;100201.28;7283791;19;152758;-49
2021/12/25 13:33:51;;;;;;;;;;;;;;;19.95;50.68;100198.78;7281650;19;154488;-49
2021/12/25 13:36:21;;;;;;;;;;;;;;;19.93;50.34;100197.47;7290534;19;152175;-52
2021/12/25 13:38:55;;;;;;;;;;;;;;;19.90;50.46;100204.53;7283543;19;152400;-49
2021/12/25 13:41:26;;;;;;;;;;;;;;;19.82;50.09;100204.50;7283240;19;152033;-50
2021/12/25 13:44:01;;;;;;;;;;;;;;;19.75;49.62;100196.56;7282311;19;153532;-50
2021/12/25 13:46:35;;;;;;;;;;;;;;;19.72;49.88;100199.97;7282869;19;153680;-49
2021/12/25 13:49:02;;;;;;;;;;;;;;;19.68;49.44;100198.13;7282075;19;152308;-49
2021/12/25 13:51:29;;;;;;;;;;;;;;;19.60;49.55;100202.56;7283039;19;153439;-50
2021/12/25 13:53:56;;;;;;;;;;;;;;;19.59;49.74;100203.69;7282373;19;153964;-50
2021/12/25 13:56:24;;;;;;;;;;;;;;;19.58;49.44;100202.03;7281523;19;151843;-56
2021/12/25 13:58:51;;;;;;;;;;;;;;;19.59;49.50;100197.25;7288360;19;152910;-49
2021/12/25 14:01:17;;;;;;;;;;;;;;;19.50;49.70;100205.63;7284233;19;152571;-49
2021/12/25 14:03:45;;;;;;;;;;;;;;;19.48;49.66;100196.72;7281790;19;153467;-49
2021/12/25 14:06:12;;;;;;;;;;;;;;;19.42;49.49;100200.75;7278317;19;152441;-49
2021/12/25 14:08:39;;;;;;;;;;;;;;;19.42;49.41;100198.78;7283837;19;152042;-50
2021/12/25 14:11:08;;;;;;;;;;;;;;;19.38;49.15;100199.75;7285941;19;153021;-50